sensor_id;sensor_type;location;lat;lon;timestamp;P1;P2;P0
30342;PMS5003;17145;49.902;8.680;2023-09-18T00:02:25;10;10;
30342;PMS5003;17145;49.902;8.680;2023-09-18T00:04:52;9;9;
30342;PMS5003;17145;49.902;8.680;2023-09-18T00:07:20;10;10;
30342;PMS5003;17145;49.902;8.680;2023-09-18T00:09:47;8;7;
30342;PMS5003;17145;49.902;8.680;2023-09-18T00:12:15;8;7;
30342;PMS5003;17145;49.902;8.680;2023-09-18T00:14:42;8;8;
30342;PMS5003;17145;49.902;8.680;2023-09-18T00:17:10;8;8;
30342;PMS5003;17145;49.902;8.680;2023-09-18T00:19:37;8;8;
30342;PMS5003;17145;49.902;8.680;2023-09-18T00:22:04;8;7;
30342;PMS5003;17145;49.902;8.680;2023-09-18T00:24:32;9;9;
30342;PMS5003;17145;49.902;8.680;2023-09-18T00:26:59;7;7;
30342;PMS5003;17145;49.902;8.680;2023-09-18T00:29:27;8;8;
30342;PMS5003;17145;49.902;8.680;2023-09-18T00:31:54;8;8;
30342;PMS5003;17145;49.902;8.680;2023-09-18T00:34:22;10;10;
30342;PMS5003;17145;49.902;8.680;2023-09-18T00:36:49;129;128;
30342;PMS5003;17145;49.902;8.680;2023-09-18T00:39:17;154;154;
30342;PMS5003;17145;49.902;8.680;2023-09-18T00:41:45;69;68;
30342;PMS5003;17145;49.902;8.680;2023-09-18T00:44:12;23;23;
30342;PMS5003;17145;49.902;8.680;2023-09-18T00:46:40;8;8;
30342;PMS5003;17145;49.902;8.680;2023-09-18T00:49:07;8;8;
30342;PMS5003;17145;49.902;8.680;2023-09-18T00:51:35;8;8;
30342;PMS5003;17145;49.902;8.680;2023-09-18T00:54:02;11;11;
30342;PMS5003;17145;49.902;8.680;2023-09-18T00:56:30;8;8;
30342;PMS5003;17145;49.902;8.680;2023-09-18T00:58:57;8;8;
30342;PMS5003;17145;49.902;8.680;2023-09-18T01:01:25;11;9;
30342;PMS5003;17145;49.902;8.680;2023-09-18T01:03:53;23;23;
30342;PMS5003;17145;49.902;8.680;2023-09-18T01:06:20;8;7;
30342;PMS5003;17145;49.902;8.680;2023-09-18T01:08:48;9;8;
30342;PMS5003;17145;49.902;8.680;2023-09-18T01:11:19;9;9;
30342;PMS5003;17145;49.902;8.680;2023-09-18T01:13:54;10;10;
30342;PMS5003;17145;49.902;8.680;2023-09-18T01:16:28;8;8;
30342;PMS5003;17145;49.902;8.680;2023-09-18T01:19:01;7;7;
30342;PMS5003;17145;49.902;8.680;2023-09-18T01:21:29;8;8;
30342;PMS5003;17145;49.902;8.680;2023-09-18T01:23:56;9;8;
30342;PMS5003;17145;49.902;8.680;2023-09-18T01:26:24;10;10;
30342;PMS5003;17145;49.902;8.680;2023-09-18T01:28:51;11;10;
30342;PMS5003;17145;49.902;8.680;2023-09-18T01:31:18;8;7;
30342;PMS5003;17145;49.902;8.680;2023-09-18T01:33:46;7;7;
30342;PMS5003;17145;49.902;8.680;2023-09-18T01:36:14;8;8;
30342;PMS5003;17145;49.902;8.680;2023-09-18T01:38:45;7;7;
30342;PMS5003;17145;49.902;8.680;2023-09-18T01:41:13;6;6;
30342;PMS5003;17145;49.902;8.680;2023-09-18T01:43:40;6;5;
30342;PMS5003;17145;49.902;8.680;2023-09-18T01:46:08;9;8;
30342;PMS5003;17145;49.902;8.680;2023-09-18T01:48:36;8;7;
30342;PMS5003;17145;49.902;8.680;2023-09-18T01:51:03;10;8;
30342;PMS5003;17145;49.902;8.680;2023-09-18T01:53:30;5;5;
30342;PMS5003;17145;49.902;8.680;2023-09-18T01:55:58;10;9;
30342;PMS5003;17145;49.902;8.680;2023-09-18T01:58:25;8;6;
30342;PMS5003;17145;49.902;8.680;2023-09-18T02:00:52;9;8;
30342;PMS5003;17145;49.902;8.680;2023-09-18T02:03:20;6;6;
30342;PMS5003;17145;49.902;8.680;2023-09-18T02:05:47;7;7;
30342;PMS5003;17145;49.902;8.680;2023-09-18T02:08:14;7;7;
30342;PMS5003;17145;49.902;8.680;2023-09-18T02:10:42;10;10;
30342;PMS5003;17145;49.902;8.680;2023-09-18T02:13:09;13;13;
30342;PMS5003;17145;49.902;8.680;2023-09-18T02:15:37;9;9;
30342;PMS5003;17145;49.902;8.680;2023-09-18T02:18:04;23;23;
30342;PMS5003;17145;49.902;8.680;2023-09-18T02:23:07;32;32;
30342;PMS5003;17145;49.902;8.680;2023-09-18T02:25:34;5;5;
30342;PMS5003;17145;49.902;8.680;2023-09-18T02:28:01;6;6;
30342;PMS5003;17145;49.902;8.680;2023-09-18T02:30:29;5;5;
30342;PMS5003;17145;49.902;8.680;2023-09-18T02:32:57;7;7;
30342;PMS5003;17145;49.902;8.680;2023-09-18T02:35:24;5;5;
30342;PMS5003;17145;49.902;8.680;2023-09-18T02:37:52;6;6;
30342;PMS5003;17145;49.902;8.680;2023-09-18T02:40:19;8;7;
30342;PMS5003;17145;49.902;8.680;2023-09-18T02:42:47;7;7;
30342;PMS5003;17145;49.902;8.680;2023-09-18T02:45:14;7;6;
30342;PMS5003;17145;49.902;8.680;2023-09-18T02:47:42;9;9;
30342;PMS5003;17145;49.902;8.680;2023-09-18T02:50:09;6;6;
30342;PMS5003;17145;49.902;8.680;2023-09-18T02:52:37;8;7;
30342;PMS5003;17145;49.902;8.680;2023-09-18T02:55:04;7;7;
30342;PMS5003;17145;49.902;8.680;2023-09-18T02:57:32;9;8;
30342;PMS5003;17145;49.902;8.680;2023-09-18T02:59:59;11;11;
30342;PMS5003;17145;49.902;8.680;2023-09-18T03:02:27;19;19;
30342;PMS5003;17145;49.902;8.680;2023-09-18T03:04:54;5;5;
30342;PMS5003;17145;49.902;8.680;2023-09-18T03:07:21;6;5;
30342;PMS5003;17145;49.902;8.680;2023-09-18T03:09:49;6;6;
30342;PMS5003;17145;49.902;8.680;2023-09-18T03:12:16;5;5;
30342;PMS5003;17145;49.902;8.680;2023-09-18T03:14:44;6;5;
30342;PMS5003;17145;49.902;8.680;2023-09-18T03:17:11;5;5;
30342;PMS5003;17145;49.902;8.680;2023-09-18T03:19:39;6;6;
30342;PMS5003;17145;49.902;8.680;2023-09-18T03:22:06;7;7;
30342;PMS5003;17145;49.902;8.680;2023-09-18T03:24:34;6;6;
30342;PMS5003;17145;49.902;8.680;2023-09-18T03:27:01;5;5;
30342;PMS5003;17145;49.902;8.680;2023-09-18T03:29:29;6;6;
30342;PMS5003;17145;49.902;8.680;2023-09-18T03:31:56;6;6;
30342;PMS5003;17145;49.902;8.680;2023-09-18T03:34:23;6;6;
30342;PMS5003;17145;49.902;8.680;2023-09-18T03:36:51;6;6;
30342;PMS5003;17145;49.902;8.680;2023-09-18T03:39:19;9;9;
30342;PMS5003;17145;49.902;8.680;2023-09-18T03:41:46;6;6;
30342;PMS5003;17145;49.902;8.680;2023-09-18T03:44:13;6;6;
30342;PMS5003;17145;49.902;8.680;2023-09-18T03:46:41;6;6;
30342;PMS5003;17145;49.902;8.680;2023-09-18T03:49:08;4;4;
30342;PMS5003;17145;49.902;8.680;2023-09-18T03:51:35;5;5;
30342;PMS5003;17145;49.902;8.680;2023-09-18T03:54:03;7;6;
30342;PMS5003;17145;49.902;8.680;2023-09-18T03:56:31;6;5;
30342;PMS5003;17145;49.902;8.680;2023-09-18T03:58:58;5;5;
30342;PMS5003;17145;49.902;8.680;2023-09-18T04:01:25;6;6;
30342;PMS5003;17145;49.902;8.680;2023-09-18T04:03:53;19;19;
30342;PMS5003;17145;49.902;8.680;2023-09-18T04:06:20;49;49;
30342;PMS5003;17145;49.902;8.680;2023-09-18T04:08:48;20;20;
30342;PMS5003;17145;49.902;8.680;2023-09-18T04:11:16;49;48;
30342;PMS5003;17145;49.902;8.680;2023-09-18T04:13:43;24;19;
30342;PMS5003;17145;49.902;8.680;2023-09-18T04:16:11;7;7;
30342;PMS5003;17145;49.902;8.680;2023-09-18T04:18:38;8;8;
30342;PMS5003;17145;49.902;8.680;2023-09-18T04:21:06;8;8;
30342;PMS5003;17145;49.902;8.680;2023-09-18T04:23:33;12;11;
30342;PMS5003;17145;49.902;8.680;2023-09-18T04:26:01;8;8;
30342;PMS5003;17145;49.902;8.680;2023-09-18T04:28:28;6;6;
30342;PMS5003;17145;49.902;8.680;2023-09-18T04:30:56;13;11;
30342;PMS5003;17145;49.902;8.680;2023-09-18T04:33:23;5;5;
30342;PMS5003;17145;49.902;8.680;2023-09-18T04:35:50;7;7;
30342;PMS5003;17145;49.902;8.680;2023-09-18T04:38:18;6;6;
30342;PMS5003;17145;49.902;8.680;2023-09-18T04:40:45;8;7;
30342;PMS5003;17145;49.902;8.680;2023-09-18T04:43:13;6;6;
30342;PMS5003;17145;49.902;8.680;2023-09-18T04:45:40;7;7;
30342;PMS5003;17145;49.902;8.680;2023-09-18T04:48:09;37;37;
30342;PMS5003;17145;49.902;8.680;2023-09-18T04:50:36;53;34;
30342;PMS5003;17145;49.902;8.680;2023-09-18T04:53:04;32;26;
30342;PMS5003;17145;49.902;8.680;2023-09-18T04:55:31;71;66;
30342;PMS5003;17145;49.902;8.680;2023-09-18T04:57:58;8;8;
30342;PMS5003;17145;49.902;8.680;2023-09-18T05:00:26;8;8;
30342;PMS5003;17145;49.902;8.680;2023-09-18T05:02:53;7;7;
30342;PMS5003;17145;49.902;8.680;2023-09-18T05:05:21;8;8;
30342;PMS5003;17145;49.902;8.680;2023-09-18T05:07:48;8;8;
30342;PMS5003;17145;49.902;8.680;2023-09-18T05:10:16;7;7;
30342;PMS5003;17145;49.902;8.680;2023-09-18T05:12:43;8;8;
30342;PMS5003;17145;49.902;8.680;2023-09-18T05:15:11;18;12;
30342;PMS5003;17145;49.902;8.680;2023-09-18T05:17:39;6;6;
30342;PMS5003;17145;49.902;8.680;2023-09-18T05:20:08;8;8;
30342;PMS5003;17145;49.902;8.680;2023-09-18T05:22:36;18;18;
30342;PMS5003;17145;49.902;8.680;2023-09-18T05:25:04;23;19;
30342;PMS5003;17145;49.902;8.680;2023-09-18T05:27:32;25;19;
30342;PMS5003;17145;49.902;8.680;2023-09-18T05:29:59;15;11;
30342;PMS5003;17145;49.902;8.680;2023-09-18T05:32:27;19;11;
30342;PMS5003;17145;49.902;8.680;2023-09-18T05:34:54;13;8;
30342;PMS5003;17145;49.902;8.680;2023-09-18T05:37:22;27;22;
30342;PMS5003;17145;49.902;8.680;2023-09-18T05:39:49;24;19;
30342;PMS5003;17145;49.902;8.680;2023-09-18T05:42:16;30;24;
30342;PMS5003;17145;49.902;8.680;2023-09-18T05:44:44;90;83;
30342;PMS5003;17145;49.902;8.680;2023-09-18T05:47:11;161;156;
30342;PMS5003;17145;49.902;8.680;2023-09-18T05:49:38;192;191;
30342;PMS5003;17145;49.902;8.680;2023-09-18T05:52:06;43;39;
30342;PMS5003;17145;49.902;8.680;2023-09-18T05:54:33;10;10;
30342;PMS5003;17145;49.902;8.680;2023-09-18T05:57:00;7;7;
30342;PMS5003;17145;49.902;8.680;2023-09-18T05:59:28;9;9;
30342;PMS5003;17145;49.902;8.680;2023-09-18T06:01:55;8;8;
30342;PMS5003;17145;49.902;8.680;2023-09-18T06:04:22;9;9;
30342;PMS5003;17145;49.902;8.680;2023-09-18T06:06:50;11;10;
30342;PMS5003;17145;49.902;8.680;2023-09-18T06:09:17;12;11;
30342;PMS5003;17145;49.902;8.680;2023-09-18T06:11:45;10;10;
30342;PMS5003;17145;49.902;8.680;2023-09-18T06:14:12;9;9;
30342;PMS5003;17145;49.902;8.680;2023-09-18T06:16:40;9;9;
30342;PMS5003;17145;49.902;8.680;2023-09-18T06:19:07;11;10;
30342;PMS5003;17145;49.902;8.680;2023-09-18T06:21:34;9;9;
30342;PMS5003;17145;49.902;8.680;2023-09-18T06:24:02;14;12;
30342;PMS5003;17145;49.902;8.680;2023-09-18T06:26:30;8;8;
30342;PMS5003;17145;49.902;8.680;2023-09-18T06:28:57;9;8;
30342;PMS5003;17145;49.902;8.680;2023-09-18T06:31:25;10;10;
30342;PMS5003;17145;49.902;8.680;2023-09-18T06:33:53;10;9;
30342;PMS5003;17145;49.902;8.680;2023-09-18T06:36:20;8;8;
30342;PMS5003;17145;49.902;8.680;2023-09-18T06:38:47;10;9;
30342;PMS5003;17145;49.902;8.680;2023-09-18T06:41:15;10;9;
30342;PMS5003;17145;49.902;8.680;2023-09-18T06:43:42;9;9;
30342;PMS5003;17145;49.902;8.680;2023-09-18T06:46:09;8;8;
30342;PMS5003;17145;49.902;8.680;2023-09-18T06:48:37;10;10;
30342;PMS5003;17145;49.902;8.680;2023-09-18T06:51:04;10;10;
30342;PMS5003;17145;49.902;8.680;2023-09-18T06:53:32;12;12;
30342;PMS5003;17145;49.902;8.680;2023-09-18T06:55:59;12;12;
30342;PMS5003;17145;49.902;8.680;2023-09-18T06:58:26;13;12;
30342;PMS5003;17145;49.902;8.680;2023-09-18T07:00:54;29;27;
30342;PMS5003;17145;49.902;8.680;2023-09-18T07:03:21;43;34;
30342;PMS5003;17145;49.902;8.680;2023-09-18T07:05:49;33;27;
30342;PMS5003;17145;49.902;8.680;2023-09-18T07:08:16;33;28;
30342;PMS5003;17145;49.902;8.680;2023-09-18T07:10:44;11;11;
30342;PMS5003;17145;49.902;8.680;2023-09-18T07:13:11;12;12;
30342;PMS5003;17145;49.902;8.680;2023-09-18T07:15:38;14;13;
30342;PMS5003;17145;49.902;8.680;2023-09-18T07:18:06;14;13;
30342;PMS5003;17145;49.902;8.680;2023-09-18T07:20:33;12;12;
30342;PMS5003;17145;49.902;8.680;2023-09-18T07:23:01;13;12;
30342;PMS5003;17145;49.902;8.680;2023-09-18T07:25:29;13;13;
30342;PMS5003;17145;49.902;8.680;2023-09-18T07:27:56;14;14;
30342;PMS5003;17145;49.902;8.680;2023-09-18T07:30:24;17;17;
30342;PMS5003;17145;49.902;8.680;2023-09-18T07:32:52;19;19;
30342;PMS5003;17145;49.902;8.680;2023-09-18T07:35:22;19;19;
30342;PMS5003;17145;49.902;8.680;2023-09-18T07:37:49;26;25;
30342;PMS5003;17145;49.902;8.680;2023-09-18T07:40:17;19;19;
30342;PMS5003;17145;49.902;8.680;2023-09-18T07:42:44;9;9;
30342;PMS5003;17145;49.902;8.680;2023-09-18T07:45:12;10;10;
30342;PMS5003;17145;49.902;8.680;2023-09-18T07:47:39;11;11;
30342;PMS5003;17145;49.902;8.680;2023-09-18T07:50:07;10;9;
30342;PMS5003;17145;49.902;8.680;2023-09-18T07:52:35;11;10;
30342;PMS5003;17145;49.902;8.680;2023-09-18T07:55:02;10;10;
30342;PMS5003;17145;49.902;8.680;2023-09-18T07:57:30;10;10;
30342;PMS5003;17145;49.902;8.680;2023-09-18T07:59:57;12;11;
30342;PMS5003;17145;49.902;8.680;2023-09-18T08:02:25;12;11;
30342;PMS5003;17145;49.902;8.680;2023-09-18T08:04:53;14;13;
30342;PMS5003;17145;49.902;8.680;2023-09-18T08:07:21;13;13;
30342;PMS5003;17145;49.902;8.680;2023-09-18T08:09:48;9;9;
30342;PMS5003;17145;49.902;8.680;2023-09-18T08:12:15;12;12;
30342;PMS5003;17145;49.902;8.680;2023-09-18T08:14:43;12;11;
30342;PMS5003;17145;49.902;8.680;2023-09-18T08:17:10;10;10;
30342;PMS5003;17145;49.902;8.680;2023-09-18T08:19:37;10;10;
30342;PMS5003;17145;49.902;8.680;2023-09-18T08:22:05;13;12;
30342;PMS5003;17145;49.902;8.680;2023-09-18T08:24:32;13;12;
30342;PMS5003;17145;49.902;8.680;2023-09-18T08:27:00;15;15;
30342;PMS5003;17145;49.902;8.680;2023-09-18T08:29:27;18;18;
30342;PMS5003;17145;49.902;8.680;2023-09-18T08:31:54;18;18;
30342;PMS5003;17145;49.902;8.680;2023-09-18T08:34:22;20;20;
30342;PMS5003;17145;49.902;8.680;2023-09-18T08:36:49;21;21;
30342;PMS5003;17145;49.902;8.680;2023-09-18T08:39:17;22;21;
30342;PMS5003;17145;49.902;8.680;2023-09-18T08:41:44;21;20;
30342;PMS5003;17145;49.902;8.680;2023-09-18T08:44:17;24;23;
30342;PMS5003;17145;49.902;8.680;2023-09-18T08:46:45;11;11;
30342;PMS5003;17145;49.902;8.680;2023-09-18T08:49:13;10;10;
30342;PMS5003;17145;49.902;8.680;2023-09-18T08:51:41;13;13;
30342;PMS5003;17145;49.902;8.680;2023-09-18T08:54:10;11;11;
30342;PMS5003;17145;49.902;8.680;2023-09-18T08:56:38;36;34;
30342;PMS5003;17145;49.902;8.680;2023-09-18T08:59:05;14;12;
30342;PMS5003;17145;49.902;8.680;2023-09-18T09:01:33;36;34;
30342;PMS5003;17145;49.902;8.680;2023-09-18T09:04:00;14;14;
30342;PMS5003;17145;49.902;8.680;2023-09-18T09:06:28;12;12;
30342;PMS5003;17145;49.902;8.680;2023-09-18T09:08:55;13;13;
30342;PMS5003;17145;49.902;8.680;2023-09-18T09:11:23;12;12;
30342;PMS5003;17145;49.902;8.680;2023-09-18T09:13:54;13;12;
30342;PMS5003;17145;49.902;8.680;2023-09-18T09:16:34;14;14;
30342;PMS5003;17145;49.902;8.680;2023-09-18T09:19:02;13;13;
30342;PMS5003;17145;49.902;8.680;2023-09-18T09:24:05;14;13;
30342;PMS5003;17145;49.902;8.680;2023-09-18T09:26:33;17;17;
30342;PMS5003;17145;49.902;8.680;2023-09-18T09:31:42;17;16;
30342;PMS5003;17145;49.902;8.680;2023-09-18T09:34:10;20;14;
30342;PMS5003;17145;49.902;8.680;2023-09-18T09:39:15;17;17;
30342;PMS5003;17145;49.902;8.680;2023-09-18T09:41:45;14;14;
30342;PMS5003;17145;49.902;8.680;2023-09-18T09:44:12;13;13;
30342;PMS5003;17145;49.902;8.680;2023-09-18T09:46:44;15;14;
30342;PMS5003;17145;49.902;8.680;2023-09-18T09:49:12;15;14;
30342;PMS5003;17145;49.902;8.680;2023-09-18T09:51:40;19;13;
30342;PMS5003;17145;49.902;8.680;2023-09-18T09:54:09;19;15;
30342;PMS5003;17145;49.902;8.680;2023-09-18T09:56:40;19;15;
30342;PMS5003;17145;49.902;8.680;2023-09-18T09:59:09;14;14;
30342;PMS5003;17145;49.902;8.680;2023-09-18T10:01:37;14;14;
30342;PMS5003;17145;49.902;8.680;2023-09-18T10:04:09;13;13;
30342;PMS5003;17145;49.902;8.680;2023-09-18T10:06:39;13;13;
30342;PMS5003;17145;49.902;8.680;2023-09-18T10:09:09;15;14;
30342;PMS5003;17145;49.902;8.680;2023-09-18T10:11:40;15;15;
30342;PMS5003;17145;49.902;8.680;2023-09-18T10:14:12;15;14;
30342;PMS5003;17145;49.902;8.680;2023-09-18T10:16:44;13;12;
30342;PMS5003;17145;49.902;8.680;2023-09-18T10:19:19;12;12;
30342;PMS5003;17145;49.902;8.680;2023-09-18T10:21:57;12;12;
30342;PMS5003;17145;49.902;8.680;2023-09-18T10:24:33;13;13;
30342;PMS5003;17145;49.902;8.680;2023-09-18T10:27:03;14;14;
30342;PMS5003;17145;49.902;8.680;2023-09-18T10:29:32;13;12;
30342;PMS5003;17145;49.902;8.680;2023-09-18T10:32:01;13;13;
30342;PMS5003;17145;49.902;8.680;2023-09-18T10:34:30;13;13;
30342;PMS5003;17145;49.902;8.680;2023-09-18T10:37:00;16;16;
30342;PMS5003;17145;49.902;8.680;2023-09-18T10:39:29;13;13;
30342;PMS5003;17145;49.902;8.680;2023-09-18T10:42:01;14;13;
30342;PMS5003;17145;49.902;8.680;2023-09-18T10:44:30;12;12;
30342;PMS5003;17145;49.902;8.680;2023-09-18T10:46:57;13;13;
30342;PMS5003;17145;49.902;8.680;2023-09-18T10:49:26;13;13;
30342;PMS5003;17145;49.902;8.680;2023-09-18T10:51:54;15;15;
30342;PMS5003;17145;49.902;8.680;2023-09-18T10:54:23;16;15;
30342;PMS5003;17145;49.902;8.680;2023-09-18T10:56:52;14;13;
30342;PMS5003;17145;49.902;8.680;2023-09-18T10:59:20;16;16;
30342;PMS5003;17145;49.902;8.680;2023-09-18T11:01:47;15;15;
30342;PMS5003;17145;49.902;8.680;2023-09-18T11:04:17;15;14;
30342;PMS5003;17145;49.902;8.680;2023-09-18T11:09:28;15;14;
30342;PMS5003;17145;49.902;8.680;2023-09-18T11:12:02;13;12;
30342;PMS5003;17145;49.902;8.680;2023-09-18T11:19:55;13;12;
30342;PMS5003;17145;49.902;8.680;2023-09-18T11:22:27;14;13;
30342;PMS5003;17145;49.902;8.680;2023-09-18T11:24:55;21;19;
30342;PMS5003;17145;49.902;8.680;2023-09-18T11:30:15;15;15;
30342;PMS5003;17145;49.902;8.680;2023-09-18T11:32:43;14;14;
30342;PMS5003;17145;49.902;8.680;2023-09-18T11:35:11;15;14;
30342;PMS5003;17145;49.902;8.680;2023-09-18T11:37:40;13;13;
30342;PMS5003;17145;49.902;8.680;2023-09-18T11:45:32;16;15;
30342;PMS5003;17145;49.902;8.680;2023-09-18T11:48:00;13;13;
30342;PMS5003;17145;49.902;8.680;2023-09-18T11:50:27;15;13;
30342;PMS5003;17145;49.902;8.680;2023-09-18T11:52:55;13;13;
30342;PMS5003;17145;49.902;8.680;2023-09-18T11:55:23;14;13;
30342;PMS5003;17145;49.902;8.680;2023-09-18T11:57:51;14;14;
30342;PMS5003;17145;49.902;8.680;2023-09-18T12:00:20;15;15;
30342;PMS5003;17145;49.902;8.680;2023-09-18T12:02:47;13;13;
30342;PMS5003;17145;49.902;8.680;2023-09-18T12:05:15;11;11;
30342;PMS5003;17145;49.902;8.680;2023-09-18T12:07:44;13;13;
30342;PMS5003;17145;49.902;8.680;2023-09-18T12:10:13;12;12;
30342;PMS5003;17145;49.902;8.680;2023-09-18T12:12:42;11;11;
30342;PMS5003;17145;49.902;8.680;2023-09-18T12:15:11;14;14;
30342;PMS5003;17145;49.902;8.680;2023-09-18T12:17:39;14;14;
30342;PMS5003;17145;49.902;8.680;2023-09-18T12:20:14;12;12;
30342;PMS5003;17145;49.902;8.680;2023-09-18T12:22:46;12;11;
30342;PMS5003;17145;49.902;8.680;2023-09-18T12:25:15;13;12;
30342;PMS5003;17145;49.902;8.680;2023-09-18T12:27:43;12;12;
30342;PMS5003;17145;49.902;8.680;2023-09-18T12:30:11;13;12;
30342;PMS5003;17145;49.902;8.680;2023-09-18T12:32:40;12;12;
30342;PMS5003;17145;49.902;8.680;2023-09-18T12:35:07;12;11;
30342;PMS5003;17145;49.902;8.680;2023-09-18T12:37:35;14;13;
30342;PMS5003;17145;49.902;8.680;2023-09-18T12:40:06;10;10;
30342;PMS5003;17145;49.902;8.680;2023-09-18T12:42:39;13;11;
30342;PMS5003;17145;49.902;8.680;2023-09-18T12:45:07;12;11;
30342;PMS5003;17145;49.902;8.680;2023-09-18T12:47:36;12;11;
30342;PMS5003;17145;49.902;8.680;2023-09-18T12:50:05;12;12;
30342;PMS5003;17145;49.902;8.680;2023-09-18T12:52:33;13;12;
30342;PMS5003;17145;49.902;8.680;2023-09-18T12:55:00;13;11;
30342;PMS5003;17145;49.902;8.680;2023-09-18T12:57:28;16;12;
30342;PMS5003;17145;49.902;8.680;2023-09-18T12:59:55;11;11;
30342;PMS5003;17145;49.902;8.680;2023-09-18T13:02:23;14;12;
30342;PMS5003;17145;49.902;8.680;2023-09-18T13:04:51;10;10;
30342;PMS5003;17145;49.902;8.680;2023-09-18T13:07:20;13;13;
30342;PMS5003;17145;49.902;8.680;2023-09-18T13:15:07;13;12;
30342;PMS5003;17145;49.902;8.680;2023-09-18T13:17:36;11;10;
30342;PMS5003;17145;49.902;8.680;2023-09-18T13:20:08;11;11;
30342;PMS5003;17145;49.902;8.680;2023-09-18T13:22:38;12;12;
30342;PMS5003;17145;49.902;8.680;2023-09-18T13:25:07;11;10;
30342;PMS5003;17145;49.902;8.680;2023-09-18T13:27:36;13;12;
30342;PMS5003;17145;49.902;8.680;2023-09-18T13:30:05;10;10;
30342;PMS5003;17145;49.902;8.680;2023-09-18T13:32:35;12;12;
30342;PMS5003;17145;49.902;8.680;2023-09-18T13:35:03;12;11;
30342;PMS5003;17145;49.902;8.680;2023-09-18T13:37:32;10;10;
30342;PMS5003;17145;49.902;8.680;2023-09-18T13:39:59;13;12;
30342;PMS5003;17145;49.902;8.680;2023-09-18T13:42:27;12;12;
30342;PMS5003;17145;49.902;8.680;2023-09-18T13:44:55;13;13;
30342;PMS5003;17145;49.902;8.680;2023-09-18T13:47:22;14;12;
30342;PMS5003;17145;49.902;8.680;2023-09-18T13:49:50;15;15;
30342;PMS5003;17145;49.902;8.680;2023-09-18T13:52:17;14;13;
30342;PMS5003;17145;49.902;8.680;2023-09-18T13:54:45;18;11;
30342;PMS5003;17145;49.902;8.680;2023-09-18T13:57:13;12;11;
30342;PMS5003;17145;49.902;8.680;2023-09-18T13:59:41;12;11;
30342;PMS5003;17145;49.902;8.680;2023-09-18T14:02:08;11;11;
30342;PMS5003;17145;49.902;8.680;2023-09-18T14:04:35;11;10;
30342;PMS5003;17145;49.902;8.680;2023-09-18T14:07:03;12;12;
30342;PMS5003;17145;49.902;8.680;2023-09-18T14:09:31;10;10;
30342;PMS5003;17145;49.902;8.680;2023-09-18T14:11:58;11;10;
30342;PMS5003;17145;49.902;8.680;2023-09-18T14:14:26;10;10;
30342;PMS5003;17145;49.902;8.680;2023-09-18T14:16:53;14;13;
30342;PMS5003;17145;49.902;8.680;2023-09-18T14:19:21;11;11;
30342;PMS5003;17145;49.902;8.680;2023-09-18T14:21:48;11;11;
30342;PMS5003;17145;49.902;8.680;2023-09-18T14:24:17;13;11;
30342;PMS5003;17145;49.902;8.680;2023-09-18T14:26:45;10;9;
30342;PMS5003;17145;49.902;8.680;2023-09-18T14:29:13;11;10;
30342;PMS5003;17145;49.902;8.680;2023-09-18T14:31:40;9;9;
30342;PMS5003;17145;49.902;8.680;2023-09-18T14:34:08;10;9;
30342;PMS5003;17145;49.902;8.680;2023-09-18T14:36:38;13;12;
30342;PMS5003;17145;49.902;8.680;2023-09-18T14:39:07;9;9;
30342;PMS5003;17145;49.902;8.680;2023-09-18T14:41:37;10;9;
30342;PMS5003;17145;49.902;8.680;2023-09-18T14:44:14;11;10;
30342;PMS5003;17145;49.902;8.680;2023-09-18T14:46:42;12;10;
30342;PMS5003;17145;49.902;8.680;2023-09-18T14:49:15;10;10;
30342;PMS5003;17145;49.902;8.680;2023-09-18T14:51:44;10;10;
30342;PMS5003;17145;49.902;8.680;2023-09-18T14:54:11;11;11;
30342;PMS5003;17145;49.902;8.680;2023-09-18T14:56:40;10;10;
30342;PMS5003;17145;49.902;8.680;2023-09-18T14:59:07;10;9;
30342;PMS5003;17145;49.902;8.680;2023-09-18T15:01:36;10;9;
30342;PMS5003;17145;49.902;8.680;2023-09-18T15:04:05;10;10;
30342;PMS5003;17145;49.902;8.680;2023-09-18T15:06:32;11;10;
30342;PMS5003;17145;49.902;8.680;2023-09-18T15:09:01;11;10;
30342;PMS5003;17145;49.902;8.680;2023-09-18T15:11:28;11;11;
30342;PMS5003;17145;49.902;8.680;2023-09-18T15:13:56;11;10;
30342;PMS5003;17145;49.902;8.680;2023-09-18T15:16:23;11;11;
30342;PMS5003;17145;49.902;8.680;2023-09-18T15:18:51;10;10;
30342;PMS5003;17145;49.902;8.680;2023-09-18T15:21:18;13;13;
30342;PMS5003;17145;49.902;8.680;2023-09-18T15:23:46;12;12;
30342;PMS5003;17145;49.902;8.680;2023-09-18T15:26:13;13;11;
30342;PMS5003;17145;49.902;8.680;2023-09-18T15:28:41;9;9;
30342;PMS5003;17145;49.902;8.680;2023-09-18T15:31:08;8;8;
30342;PMS5003;17145;49.902;8.680;2023-09-18T15:33:38;11;10;
30342;PMS5003;17145;49.902;8.680;2023-09-18T15:36:08;11;10;
30342;PMS5003;17145;49.902;8.680;2023-09-18T15:38:39;12;12;
30342;PMS5003;17145;49.902;8.680;2023-09-18T15:43:46;11;11;
30342;PMS5003;17145;49.902;8.680;2023-09-18T15:46:14;9;9;
30342;PMS5003;17145;49.902;8.680;2023-09-18T15:48:42;12;12;
30342;PMS5003;17145;49.902;8.680;2023-09-18T15:51:14;11;11;
30342;PMS5003;17145;49.902;8.680;2023-09-18T15:53:44;11;11;
30342;PMS5003;17145;49.902;8.680;2023-09-18T15:56:11;12;11;
30342;PMS5003;17145;49.902;8.680;2023-09-18T15:58:38;9;9;
30342;PMS5003;17145;49.902;8.680;2023-09-18T16:01:06;12;12;
30342;PMS5003;17145;49.902;8.680;2023-09-18T16:03:34;12;11;
30342;PMS5003;17145;49.902;8.680;2023-09-18T16:06:01;10;10;
30342;PMS5003;17145;49.902;8.680;2023-09-18T16:08:28;10;10;
30342;PMS5003;17145;49.902;8.680;2023-09-18T16:10:56;14;12;
30342;PMS5003;17145;49.902;8.680;2023-09-18T16:13:24;10;10;
30342;PMS5003;17145;49.902;8.680;2023-09-18T16:15:51;10;10;
30342;PMS5003;17145;49.902;8.680;2023-09-18T16:18:19;13;11;
30342;PMS5003;17145;49.902;8.680;2023-09-18T16:20:47;11;11;
30342;PMS5003;17145;49.902;8.680;2023-09-18T16:23:18;14;12;
30342;PMS5003;17145;49.902;8.680;2023-09-18T16:25:46;15;12;
30342;PMS5003;17145;49.902;8.680;2023-09-18T16:28:14;10;10;
30342;PMS5003;17145;49.902;8.680;2023-09-18T16:30:41;12;12;
30342;PMS5003;17145;49.902;8.680;2023-09-18T16:33:15;11;10;
30342;PMS5003;17145;49.902;8.680;2023-09-18T16:35:43;10;10;
30342;PMS5003;17145;49.902;8.680;2023-09-18T16:38:10;14;13;
30342;PMS5003;17145;49.902;8.680;2023-09-18T16:40:39;13;13;
30342;PMS5003;17145;49.902;8.680;2023-09-18T16:43:07;10;10;
30342;PMS5003;17145;49.902;8.680;2023-09-18T16:45:34;10;10;
30342;PMS5003;17145;49.902;8.680;2023-09-18T16:48:03;10;10;
30342;PMS5003;17145;49.902;8.680;2023-09-18T16:50:31;11;11;
30342;PMS5003;17145;49.902;8.680;2023-09-18T16:52:59;10;10;
30342;PMS5003;17145;49.902;8.680;2023-09-18T16:55:26;11;11;
30342;PMS5003;17145;49.902;8.680;2023-09-18T16:57:54;10;10;
30342;PMS5003;17145;49.902;8.680;2023-09-18T17:00:21;11;10;
30342;PMS5003;17145;49.902;8.680;2023-09-18T17:02:49;11;10;
30342;PMS5003;17145;49.902;8.680;2023-09-18T17:05:16;11;10;
30342;PMS5003;17145;49.902;8.680;2023-09-18T17:07:44;10;10;